Flight Track Log - Related Links

Times and Time Zones

All times are in EDT time to prevent confusion due to time zone crossing. See the DAL268 flight status page for this flight to view local times or setup timezone preferences in your user account.


Time Position Orientation Groundspeed Altitude Reporting Facility
EDT Latitude Longitude Course Direction KTS MPH feet Rate Location/Type
Sun 11:46:55 PM 40.6370 -73.7800 261° West  Level FlightAware ADS-B
Sun 11:49:55 PM 40.6370 -73.7790 90° East 2 2  Level FlightAware ADS-B
Sun 11:50:15 PM 40.6380 -73.7790 360° North 2 2  Level FlightAware ADS-B
Sun 11:52:00 PM 40.8328 -73.6000 North  Level FlightAware Approximate
Sun 11:52:13 PM 40.6370 -73.7790 North 2 2  Level FlightAware ADS-B
Sun 11:54:00 PM 40.8090 -73.6077 37° Northeast  Level FlightAware Approximate
Sun 11:54:27 PM 40.6360 -73.7790 37° Northeast 2 2  Level FlightAware ADS-B
Sun 11:57:00 PM 40.8963 -73.5371 37° Northeast  Level FlightAware Approximate
Sun 11:58:00 PM 41.0046 -73.4372 30° Northeast  Level FlightAware Approximate
Sun 11:59:00 PM 41.1235 -73.3466 21° North  Level FlightAware Approximate
Mon 12:00:00 AM 41.2389 -73.2500 29° Northeast  Level FlightAware Approximate
Mon 12:01:00 AM 41.3504 -73.1496 37° Northeast  Level FlightAware Approximate
Mon 12:02:00 AM 41.4241 -73.0019 56° Northeast  Level FlightAware Approximate
Mon 12:03:00 AM 41.4953 -72.8487 48° Northeast  Level FlightAware Approximate
Mon 12:04:00 AM 41.5707 -72.6964 63° Northeast  Level FlightAware Approximate
Mon 12:05:00 AM 41.6334 -72.5331 56° Northeast  Level FlightAware Approximate
Mon 12:06:00 AM 41.7079 -72.3799 48° Northeast  Level FlightAware Approximate
Mon 12:07:00 AM 41.7788 -72.2227 59° Northeast  Level FlightAware Approximate
Mon 12:08:00 AM 41.8487 -72.0642 59° Northeast  Level FlightAware Approximate
Mon 12:09:00 AM 41.9185 -71.9054 59° Northeast  Level FlightAware Approximate
Mon 12:12:00 AM 40.9109 -73.5225 37° Northeast  Level FlightAware Approximate
Mon 12:12:46 AM 40.6380 -73.7790 37° Northeast 2 2  Level FlightAware ADS-B
Mon 12:14:20 AM 40.6370 -73.7790 180° South 2 2  Level FlightAware ADS-B
Mon 12:17:00 AM 40.9326 -73.5007 37° Northeast  Level FlightAware Approximate
Mon 12:18:00 AM 41.0439 -73.4067 30° Northeast  Level FlightAware Approximate
Mon 12:19:00 AM 41.1638 -73.3196 37° Northeast  Level FlightAware Approximate
Mon 12:20:00 AM 41.2786 -73.2202 29° Northeast  Level FlightAware Approximate
Mon 12:21:00 AM 41.3818 -73.1182 37° Northeast  Level FlightAware Approximate
Mon 12:22:00 AM 41.4424 -72.9652 56° Northeast  Level FlightAware Approximate
Mon 12:23:00 AM 41.5132 -72.8219 48° Northeast  Level FlightAware Approximate
Mon 12:24:00 AM 41.5801 -72.6719 63° Northeast  Level FlightAware Approximate
Mon 12:25:00 AM 41.6415 -72.5171 56° Northeast  Level FlightAware Approximate
Mon 12:26:00 AM 41.7134 -72.3716 48° Northeast  Level FlightAware Approximate
Mon 12:27:00 AM 41.7798 -72.2203 59° Northeast  Level FlightAware Approximate
Mon 12:28:00 AM 41.8464 -72.0695 59° Northeast  Level FlightAware Approximate
Mon 12:29:00 AM 41.9128 -71.9184 59° Northeast  Level FlightAware Approximate
Mon 12:30:00 AM 41.9885 -71.7763 48° Northeast  Level FlightAware Approximate
Mon 12:31:00 AM 42.0761 -71.6458 48° Northeast  Level FlightAware Approximate
Mon 12:32:00 AM 42.1636 -71.5150 48° Northeast  Level FlightAware Approximate
Mon 12:33:00 AM 42.2510 -71.3838 48° Northeast  Level FlightAware Approximate
Mon 12:34:00 AM 42.3382 -71.2523 48° Northeast  Level FlightAware Approximate
Mon 12:35:00 AM 42.4252 -71.1203 48° Northeast  Level FlightAware Approximate
Mon 12:36:00 AM 42.5121 -70.9881 48° Northeast  Level FlightAware Approximate
Mon 12:37:00 AM 42.5989 -70.8554 48° Northeast  Level FlightAware Approximate
Mon 12:38:00 AM 42.6855 -70.7224 48° Northeast  Level FlightAware Approximate
Mon 12:39:00 AM 42.7746 -70.5924 47° Northeast  Level FlightAware Approximate
Mon 12:40:00 AM 42.8637 -70.4621 49° Northeast  Level FlightAware Approximate
Mon 12:41:00 AM 42.9500 -70.3282 49° Northeast  Level FlightAware Approximate
Mon 12:42:00 AM 43.0361 -70.1939 49° Northeast  Level FlightAware Approximate
Mon 12:43:00 AM 43.1221 -70.0592 49° Northeast  Level FlightAware Approximate
Mon 12:44:00 AM 43.2080 -69.9241 49° Northeast  Level FlightAware Approximate
Mon 12:45:00 AM 43.2917 -69.7918 49° Northeast  Level FlightAware Approximate
Mon 12:46:00 AM 43.3752 -69.6591 49° Northeast  Level FlightAware Approximate
Mon 12:47:00 AM 43.4586 -69.5260 49° Northeast  Level FlightAware Approximate
Mon 12:48:00 AM 43.5419 -69.3925 49° Northeast  Level FlightAware Approximate
Mon 12:49:00 AM 43.6250 -69.2587 49° Northeast  Level FlightAware Approximate
Mon 12:50:00 AM 43.7080 -69.1245 49° Northeast  Level FlightAware Approximate
Mon 12:51:00 AM 43.7923 -68.9918 48° Northeast  Level FlightAware Approximate
Mon 12:52:00 AM 43.8772 -68.8596 48° Northeast  Level FlightAware Approximate
Mon 12:53:00 AM 43.9589 -68.7234 50° Northeast  Level FlightAware Approximate
Mon 12:54:00 AM 44.0402 -68.5866 50° Northeast  Level FlightAware Approximate
Mon 12:55:00 AM 44.1190 -68.4535 50° Northeast  Level FlightAware Approximate
Mon 12:56:00 AM 44.1976 -68.3200 51° Northeast  Level FlightAware Approximate
Mon 12:57:00 AM 44.2877 -68.1664 51° Northeast  Level FlightAware Approximate
Mon 12:58:00 AM 44.3779 -68.0128 50° Northeast  Level FlightAware Approximate
Mon 12:59:00 AM 44.4682 -67.8591 51° Northeast  Level FlightAware Approximate
Mon 01:00:00 AM 44.5583 -67.7049 51° Northeast  Level FlightAware Approximate
Mon 01:01:00 AM 44.6503 -67.5528 49° Northeast  Level FlightAware Approximate
Mon 01:02:00 AM 44.7440 -67.4024 49° Northeast  Level FlightAware Approximate
Mon 01:03:00 AM 44.8375 -67.2514 49° Northeast  Level FlightAware Approximate
Mon 01:04:00 AM 44.9241 -67.0973 47° Northeast  Level FlightAware Approximate
Mon 01:05:00 AM 45.0236 -66.9539 45° Northeast  Level FlightAware Approximate
Mon 01:06:00 AM 45.1057 -66.8391 45° Northeast  Level FlightAware Approximate
Mon 01:07:00 AM 45.1876 -66.7238 45° Northeast  Level FlightAware Approximate
Mon 01:08:00 AM 45.2695 -66.6083 45° Northeast  Level FlightAware Approximate
Mon 01:09:00 AM 45.3512 -66.4925 45° Northeast  Level FlightAware Approximate
Mon 01:10:00 AM 45.4328 -66.3763 45° Northeast  Level FlightAware Approximate
Mon 01:11:00 AM 45.5143 -66.2597 45° Northeast  Level FlightAware Approximate
Mon 01:12:00 AM 45.5957 -66.1429 45° Northeast  Level FlightAware Approximate
Mon 01:13:00 AM 45.6769 -66.0257 45° Northeast  Level FlightAware Approximate
Mon 01:14:00 AM 45.7769 -65.8808 45° Northeast  Level FlightAware Approximate
Mon 01:15:00 AM 45.8766 -65.7354 45° Northeast  Level FlightAware Approximate
Mon 01:16:00 AM 45.9761 -65.5895 45° Northeast  Level FlightAware Approximate
Mon 01:17:00 AM 46.0755 -65.4431 46° Northeast  Level FlightAware Approximate
Mon 01:18:00 AM 46.1747 -65.2962 46° Northeast  Level FlightAware Approximate
Mon 01:19:00 AM 46.2734 -65.1484 46° Northeast  Level FlightAware Approximate
Mon 01:20:00 AM 46.3720 -65.0001 46° Northeast  Level FlightAware Approximate
Mon 01:21:00 AM 46.4704 -64.8512 46° Northeast  Level FlightAware Approximate
Mon 01:22:00 AM 46.5686 -64.7018 46° Northeast  Level FlightAware Approximate
Mon 01:23:00 AM 46.6665 -64.5519 46° Northeast  Level FlightAware Approximate
Mon 01:24:00 AM 46.7643 -64.4014 46° Northeast  Level FlightAware Approximate
Mon 01:25:00 AM 46.8619 -64.2503 47° Northeast  Level FlightAware Approximate
Mon 01:26:00 AM 46.9593 -64.0987 47° Northeast  Level FlightAware Approximate
Mon 01:27:00 AM 47.0565 -63.9466 47° Northeast  Level FlightAware Approximate
Mon 01:28:00 AM 47.1535 -63.7939 47° Northeast  Level FlightAware Approximate
Mon 01:29:00 AM 47.2503 -63.6407 47° Northeast  Level FlightAware Approximate
Mon 01:30:00 AM 47.3468 -63.4868 47° Northeast  Level FlightAware Approximate
Mon 01:31:00 AM 47.4432 -63.3325 47° Northeast  Level FlightAware Approximate
Mon 01:32:00 AM 47.5393 -63.1775 47° Northeast  Level FlightAware Approximate
Mon 01:33:00 AM 47.6352 -63.0219 48° Northeast  Level FlightAware Approximate
Mon 01:34:00 AM 47.7308 -62.8657 48° Northeast  Level FlightAware Approximate
Mon 01:35:00 AM 47.8262 -62.7088 48° Northeast  Level FlightAware Approximate
Mon 01:36:00 AM 47.9215 -62.5514 48° Northeast  Level FlightAware Approximate
Mon 01:37:00 AM 48.0164 -62.3935 48° Northeast  Level FlightAware Approximate
Mon 01:38:00 AM 48.1112 -62.2349 48° Northeast  Level FlightAware Approximate
Mon 01:39:00 AM 48.2057 -62.0758 48° Northeast  Level FlightAware Approximate
Mon 01:40:00 AM 48.3001 -61.9161 48° Northeast  Level FlightAware Approximate
Mon 01:41:00 AM 48.3942 -61.7557 48° Northeast  Level FlightAware Approximate
Mon 01:42:00 AM 48.4880 -61.5948 49° Northeast  Level FlightAware Approximate
Mon 01:43:00 AM 48.5817 -61.4333 49° Northeast  Level FlightAware Approximate
Mon 01:44:00 AM 48.6751 -61.2712 49° Northeast  Level FlightAware Approximate
Mon 01:45:00 AM 48.7683 -61.1085 49° Northeast  Level FlightAware Approximate
Mon 01:46:00 AM 48.8613 -60.9452 49° Northeast  Level FlightAware Approximate
Mon 01:47:00 AM 48.9540 -60.7813 49° Northeast  Level FlightAware Approximate
Mon 01:48:00 AM 49.0466 -60.6167 49° Northeast  Level FlightAware Approximate
Mon 01:49:00 AM 49.1388 -60.4516 49° Northeast  Level FlightAware Approximate
Mon 01:50:00 AM 49.2309 -60.2859 50° Northeast  Level FlightAware Approximate
Mon 01:51:00 AM 49.3227 -60.1195 50° Northeast  Level FlightAware Approximate
Mon 01:52:00 AM 49.4142 -59.9525 50° Northeast  Level FlightAware Approximate
Mon 01:53:00 AM 49.5055 -59.7849 50° Northeast  Level FlightAware Approximate
Mon 01:54:00 AM 49.5966 -59.6166 50° Northeast  Level FlightAware Approximate
Mon 01:55:00 AM 49.6874 -59.4478 50° Northeast  Level FlightAware Approximate
Mon 01:56:00 AM 49.7780 -59.2783 50° Northeast  Level FlightAware Approximate
Mon 01:57:00 AM 49.8683 -59.1081 50° Northeast  Level FlightAware Approximate
Mon 01:58:00 AM 49.9584 -58.9374 51° Northeast  Level FlightAware Approximate
Mon 01:59:00 AM 50.0482 -58.7659 51° Northeast  Level FlightAware Approximate
Mon 02:00:00 AM 50.1384 -58.5946 50° Northeast  Level FlightAware Approximate
Mon 02:01:00 AM 50.2289 -58.4235 50° Northeast  Level FlightAware Approximate
Mon 02:02:00 AM 50.3193 -58.2518 50° Northeast  Level FlightAware Approximate
Mon 02:03:00 AM 50.4094 -58.0794 51° Northeast  Level FlightAware Approximate
Mon 02:04:00 AM 50.4981 -57.9049 52° Northeast  Level FlightAware Approximate
Mon 02:05:00 AM 50.5862 -57.7293 52° Northeast  Level FlightAware Approximate
Mon 02:06:00 AM 50.6740 -57.5531 52° Northeast  Level FlightAware Approximate
Mon 02:07:00 AM 50.7615 -57.3761 52° Northeast  Level FlightAware Approximate
Mon 02:08:00 AM 50.8488 -57.1986 52° Northeast  Level FlightAware Approximate
Mon 02:09:00 AM 50.9357 -57.0203 52° Northeast  Level FlightAware Approximate
Mon 02:10:00 AM 51.0225 -56.8414 52° Northeast  Level FlightAware Approximate
Mon 02:11:00 AM 51.1089 -56.6618 52° Northeast  Level FlightAware Approximate
Mon 02:12:00 AM 51.1951 -56.4816 53° Northeast  Level FlightAware Approximate
Mon 02:13:00 AM 51.2810 -56.3007 53° Northeast  Level FlightAware Approximate
Mon 02:14:00 AM 51.3666 -56.1190 53° Northeast  Level FlightAware Approximate
Mon 02:15:00 AM 51.4297 -55.9160 66° East  Level FlightAware Approximate
Mon 02:16:00 AM 51.4871 -55.7073 66° East  Level FlightAware Approximate
Mon 02:17:00 AM 51.5442 -55.4980 66° East  Level FlightAware Approximate
Mon 02:18:00 AM 51.6008 -55.2882 66° East  Level FlightAware Approximate
Mon 02:19:00 AM 51.6571 -55.0779 67° East  Level FlightAware Approximate
Mon 02:20:00 AM 51.7007 -54.9136 67° East  Level FlightAware Approximate
Mon 02:21:00 AM 51.7441 -54.7490 67° East  Level FlightAware Approximate
Mon 02:22:00 AM 51.7873 -54.5840 67° East  Level FlightAware Approximate
Mon 02:23:00 AM 51.8302 -54.4188 67° East  Level FlightAware Approximate
Mon 02:24:00 AM 51.8729 -54.2532 67° East  Level FlightAware Approximate
Mon 02:25:00 AM 51.9153 -54.0873 67° East  Level FlightAware Approximate
Mon 02:26:00 AM 51.9576 -53.9211 68° East  Level FlightAware Approximate
Mon 02:27:00 AM 51.9995 -53.7545 68° East  Level FlightAware Approximate
Mon 02:28:00 AM 52.0413 -53.5877 68° East  Level FlightAware Approximate
Mon 02:29:00 AM 52.0828 -53.4205 68° East  Level FlightAware Approximate
Mon 02:30:00 AM 52.1245 -53.2533 67° East  Level FlightAware Approximate
Mon 02:31:00 AM 52.1675 -53.0869 67° East  Level FlightAware Approximate
Mon 02:32:00 AM 52.2103 -52.9201 67° East  Level FlightAware Approximate
Mon 02:33:00 AM 52.2528 -52.7530 67° East  Level FlightAware Approximate
Mon 02:34:00 AM 52.3071 -52.5382 67° East  Level FlightAware Approximate
Mon 02:35:00 AM 52.3589 -52.3216 69° East  Level FlightAware Approximate
Mon 02:36:00 AM 52.4100 -52.1042 69° East  Level FlightAware Approximate
Mon 02:37:00 AM 52.4473 -51.9439 69° East  Level FlightAware Approximate
Mon 02:38:00 AM 52.4843 -51.7834 69° East  Level FlightAware Approximate
Mon 02:39:00 AM 52.5212 -51.6225 69° East  Level FlightAware Approximate
Mon 02:40:00 AM 52.5579 -51.4614 69° East  Level FlightAware Approximate
Mon 02:41:00 AM 52.5943 -51.3000 70° East  Level FlightAware Approximate
Mon 02:42:00 AM 52.6305 -51.1383 70° East  Level FlightAware Approximate
Mon 02:43:00 AM 52.6665 -50.9764 70° East  Level FlightAware Approximate
Mon 02:44:00 AM 52.7023 -50.8142 70° East  Level FlightAware Approximate
Mon 02:45:00 AM 52.7378 -50.6518 70° East  Level FlightAware Approximate
Mon 02:46:00 AM 52.7731 -50.4890 70° East  Level FlightAware Approximate
Mon 02:47:00 AM 52.8082 -50.3261 70° East  Level FlightAware Approximate
Mon 02:48:00 AM 52.8431 -50.1628 70° East  Level FlightAware Approximate
Mon 02:49:00 AM 52.8778 -49.9993 71° East  Level FlightAware Approximate
Mon 02:50:00 AM 52.9122 -49.8355 71° East  Level FlightAware Approximate
Mon 02:51:00 AM 52.9464 -49.6715 71° East  Level FlightAware Approximate
Mon 02:52:00 AM 52.9804 -49.5072 71° East  Level FlightAware Approximate
Mon 02:53:00 AM 53.0141 -49.3427 71° East  Level FlightAware Approximate
Mon 02:54:00 AM 53.0476 -49.1779 71° East  Level FlightAware Approximate
Mon 02:55:00 AM 53.0809 -49.0128 71° East  Level FlightAware Approximate
Mon 02:56:00 AM 53.1140 -48.8475 72° East  Level FlightAware Approximate
Mon 02:57:00 AM 53.1468 -48.6819 72° East  Level FlightAware Approximate
Mon 02:58:00 AM 53.1795 -48.5161 72° East  Level FlightAware Approximate
Mon 02:59:00 AM 53.2118 -48.3501 72° East  Level FlightAware Approximate
Mon 03:00:00 AM 53.2440 -48.1837 72° East  Level FlightAware Approximate
Mon 03:01:00 AM 53.2759 -48.0172 72° East  Level FlightAware Approximate
Mon 03:02:00 AM 53.3076 -47.8503 72° East  Level FlightAware Approximate
Mon 03:03:00 AM 53.3504 -47.6234 72° East  Level FlightAware Approximate
Mon 03:04:00 AM 53.3928 -47.3960 73° East  Level FlightAware Approximate
Mon 03:05:00 AM 53.4348 -47.1681 73° East  Level FlightAware Approximate
Mon 03:06:00 AM 53.4763 -46.9398 73° East  Level FlightAware Approximate
Mon 03:07:00 AM 53.5119 -46.7084 81° East  Level Estimated
Mon 03:08:00 AM 53.5524 -46.4792 73° East  Level FlightAware Approximate
Mon 03:09:00 AM 53.5926 -46.2495 74° East  Level FlightAware Approximate
Mon 03:10:00 AM 53.6323 -46.0194 74° East  Level FlightAware Approximate
Mon 03:11:00 AM 53.6715 -45.7889 74° East  Level FlightAware Approximate
Mon 03:12:00 AM 53.7103 -45.5579 74° East  Level FlightAware Approximate
Mon 03:13:00 AM 53.7486 -45.3265 74° East  Level FlightAware Approximate
Mon 03:14:00 AM 53.7865 -45.0947 74° East  Level FlightAware Approximate
Mon 03:15:00 AM 53.8240 -44.8625 75° East  Level FlightAware Approximate
Mon 03:16:00 AM 53.8610 -44.6299 75° East  Level FlightAware Approximate
Mon 03:17:00 AM 53.8976 -44.3969 75° East  Level FlightAware Approximate
Mon 03:18:00 AM 53.9337 -44.1634 75° East  Level FlightAware Approximate
Mon 03:19:00 AM 53.9693 -43.9296 75° East  Level FlightAware Approximate
Mon 03:20:00 AM 53.9948 -43.7604 76° East  Level FlightAware Approximate
Mon 03:21:00 AM 54.0200 -43.5910 76° East  Level FlightAware Approximate
Mon 03:22:00 AM 54.0450 -43.4213 76° East  Level FlightAware Approximate
Mon 03:23:00 AM 54.0698 -43.2515 76° East  Level FlightAware Approximate
Mon 03:24:00 AM 54.0943 -43.0815 76° East  Level FlightAware Approximate
Mon 03:25:00 AM 54.1186 -42.9113 76° East  Level FlightAware Approximate
Mon 03:26:00 AM 54.1426 -42.7409 76° East  Level FlightAware Approximate
Mon 03:27:00 AM 54.1664 -42.5703 77° East  Level FlightAware Approximate
Mon 03:28:00 AM 54.1900 -42.3994 77° East  Level FlightAware Approximate
Mon 03:29:00 AM 54.2133 -42.2284 77° East  Level FlightAware Approximate
Mon 03:30:00 AM 54.2364 -42.0573 77° East  Level FlightAware Approximate
Mon 03:31:00 AM 54.2592 -41.8859 77° East  Level FlightAware Approximate
Mon 03:32:00 AM 54.2818 -41.7143 77° East  Level FlightAware Approximate
Mon 03:33:00 AM 54.3041 -41.5425 77° East  Level FlightAware Approximate
Mon 03:34:00 AM 54.3262 -41.3706 78° East  Level FlightAware Approximate
Mon 03:35:00 AM 54.3481 -41.1985 78° East  Level FlightAware Approximate
Mon 03:36:00 AM 54.3697 -41.0261 78° East  Level FlightAware Approximate
Mon 03:37:00 AM 54.3911 -40.8537 78° East  Level FlightAware Approximate
Mon 03:38:00 AM 54.4122 -40.6810 78° East  Level FlightAware Approximate
Mon 03:39:00 AM 54.4330 -40.5081 78° East  Level FlightAware Approximate
Mon 03:40:00 AM 54.4537 -40.3351 78° East  Level FlightAware Approximate
Mon 03:41:00 AM 54.4740 -40.1619 78° East  Level FlightAware Approximate
Mon 03:42:00 AM 54.4942 -39.9885 79° East  Level FlightAware Approximate
Mon 03:43:00 AM 54.5141 -39.8150 79° East  Level FlightAware Approximate
Mon 03:44:00 AM 54.5337 -39.6413 79° East  Level FlightAware Approximate
Mon 03:45:00 AM 54.5531 -39.4674 79° East  Level FlightAware Approximate
Mon 03:46:00 AM 54.5676 -39.2964 87° East  Level Estimated
Mon 03:47:00 AM 54.5862 -39.1264 79° East  Level FlightAware Approximate
Mon 03:48:00 AM 54.6045 -38.9563 79° East  Level FlightAware Approximate
Mon 03:49:00 AM 54.6226 -38.7860 80° East  Level FlightAware Approximate
Mon 03:50:00 AM 54.6405 -38.6155 80° East  Level FlightAware Approximate
Mon 03:51:00 AM 54.6580 -38.4460 80° East  Level FlightAware Approximate
Mon 03:52:00 AM 54.6752 -38.2762 80° East  Level FlightAware Approximate

Login

Don't have an account? Register now (free) for customized features, flight alerts, and more!